createdAt,value
2017-09-25T00:00:26.817Z,0
2017-09-25T00:01:26.489Z,0
2017-09-25T00:02:26.785Z,0
2017-09-25T00:03:26.134Z,0
2017-09-25T00:04:26.453Z,0
2017-09-25T00:05:26.431Z,0
2017-09-25T00:06:26.414Z,0
2017-09-25T00:07:26.076Z,0
2017-09-25T00:08:26.073Z,0
2017-09-25T00:09:26.705Z,0
2017-09-25T00:10:26.699Z,0
2017-09-25T00:11:26.358Z,0
2017-09-25T00:12:26.344Z,0
2017-09-25T00:13:26.340Z,0
2017-09-25T00:14:26.639Z,0
2017-09-25T00:15:25.982Z,0
2017-09-25T00:16:25.649Z,0
2017-09-25T00:17:26.922Z,0
2017-09-25T00:18:25.945Z,0
2017-09-25T00:19:25.932Z,0
2017-09-25T00:20:26.242Z,0
2017-09-25T00:21:26.860Z,0
2017-09-25T00:22:26.216Z,0
2017-09-25T00:23:26.518Z,0
2017-09-25T00:24:26.507Z,0
2017-09-25T00:25:26.505Z,0
2017-09-25T00:26:26.807Z,0
2017-09-25T00:27:25.510Z,0
2017-09-25T00:28:25.825Z,0
2017-09-25T00:29:26.766Z,0
2017-09-25T00:30:25.809Z,0
2017-09-25T00:31:25.782Z,0
2017-09-25T00:32:26.413Z,0
2017-09-25T00:33:25.756Z,0
2017-09-25T00:34:26.405Z,0
2017-09-25T00:35:26.374Z,0
2017-09-25T00:36:26.031Z,0
2017-09-25T00:37:26.354Z,0
2017-09-25T00:38:25.688Z,0
2017-09-25T00:39:26.323Z,0
2017-09-25T00:40:25.997Z,0
2017-09-25T00:41:26.621Z,0
2017-09-25T00:42:25.966Z,0
2017-09-25T00:43:26.271Z,0
2017-09-25T00:44:26.573Z,0
2017-09-25T00:45:26.250Z,0
2017-09-25T00:46:26.238Z,0
2017-09-25T00:47:25.899Z,0
2017-09-25T00:48:25.883Z,0
2017-09-25T00:49:25.552Z,0
2017-09-25T00:50:26.178Z,0
2017-09-25T00:51:25.845Z,0
2017-09-25T00:52:26.153Z,0
2017-09-25T00:53:25.821Z,0
2017-09-25T00:54:26.448Z,0
2017-09-25T00:55:25.157Z,0
2017-09-25T00:56:26.104Z,0
2017-09-25T00:57:25.781Z,0
2017-09-25T00:58:25.440Z,0
2017-09-25T00:59:26.059Z,0
2017-09-25T01:00:25.403Z,0
2017-09-25T01:01:26.030Z,0
2017-09-25T01:02:26.024Z,0
2017-09-25T01:03:26.013Z,0
2017-09-25T01:04:25.682Z,0
2017-09-25T01:05:25.986Z,0
2017-09-25T01:06:25.328Z,0
2017-09-25T01:07:25.316Z,0
2017-09-25T01:08:25.621Z,0
2017-09-25T01:09:25.288Z,0
2017-09-25T01:10:26.232Z,0
2017-09-25T01:11:25.899Z,0
2017-09-25T01:12:25.628Z,0
2017-09-25T01:13:25.228Z,0
2017-09-25T01:14:25.227Z,0
2017-09-25T01:15:25.201Z,0
2017-09-25T01:16:25.508Z,0
2017-09-25T01:17:25.184Z,0
2017-09-25T01:18:25.494Z,0
2017-09-25T01:19:25.800Z,0
2017-09-25T01:20:25.474Z,0
2017-09-25T01:21:25.127Z,0
2017-09-25T01:22:26.085Z,0
2017-09-25T01:23:25.418Z,0
2017-09-25T01:24:26.055Z,0
2017-09-25T01:25:25.747Z,0
2017-09-25T01:26:26.046Z,0
2017-09-25T01:27:25.372Z,0
2017-09-25T01:28:25.670Z,0
2017-09-25T01:29:25.996Z,0
2017-09-25T01:30:25.977Z,0
2017-09-25T01:31:24.999Z,0
2017-09-25T01:32:24.983Z,0
2017-09-25T01:33:25.285Z,0
2017-09-25T01:34:25.590Z,0
2017-09-25T01:35:25.915Z,0
2017-09-25T01:36:25.587Z,0
2017-09-25T01:37:25.554Z,0
2017-09-25T01:38:25.228Z,0
2017-09-25T01:39:25.855Z,0
2017-09-25T01:40:25.530Z,0
2017-09-25T01:41:25.186Z,0
2017-09-25T01:42:25.802Z,0
2017-09-25T01:43:25.792Z,0
2017-09-25T01:44:25.140Z,0
2017-09-25T01:45:25.802Z,0
2017-09-25T01:46:25.452Z,0
2017-09-25T01:47:25.100Z,0
2017-09-25T01:48:25.419Z,0
2017-09-25T01:49:24.751Z,0
2017-09-25T01:50:25.711Z,0
2017-09-25T01:51:25.380Z,0
2017-09-25T01:52:25.033Z,0
2017-09-25T01:53:25.393Z,0
2017-09-25T01:54:25.326Z,0
2017-09-25T01:55:25.004Z,0
2017-09-25T01:56:24.977Z,0
2017-09-25T01:57:24.845Z,0
2017-09-25T01:58:24.953Z,0
2017-09-25T01:59:24.941Z,0
2017-09-25T02:00:24.921Z,0
2017-09-25T02:01:24.598Z,0
2017-09-25T02:02:25.229Z,0
2017-09-25T02:03:24.889Z,0
2017-09-25T02:04:25.201Z,0
2017-09-25T02:05:24.857Z,0
2017-09-25T02:06:24.845Z,0
2017-09-25T02:07:24.835Z,0
2017-09-25T02:08:24.499Z,0
2017-09-25T02:09:25.448Z,0
2017-09-25T02:10:25.127Z,0
2017-09-25T02:11:24.779Z,0
2017-09-25T02:12:25.095Z,0
2017-09-25T02:13:25.104Z,0
2017-09-25T02:14:24.412Z,0
2017-09-25T02:15:24.718Z,0
2017-09-25T02:16:25.026Z,0
2017-09-25T02:17:24.688Z,0
2017-09-25T02:18:24.680Z,0
2017-09-25T02:19:24.345Z,0
2017-09-25T02:20:24.338Z,0
2017-09-25T02:21:24.320Z,0
2017-09-25T02:22:24.943Z,0
2017-09-25T02:23:24.612Z,0
2017-09-25T02:24:24.284Z,0
2017-09-25T02:25:24.584Z,0
2017-09-25T02:26:24.885Z,0
2017-09-25T02:27:23.919Z,0
2017-09-25T02:28:24.920Z,0
2017-09-25T02:29:24.529Z,0
2017-09-25T02:30:24.202Z,0
2017-09-25T02:31:24.510Z,0
2017-09-25T02:32:24.483Z,0
2017-09-25T02:33:24.487Z,0
2017-09-25T02:34:24.461Z,0
2017-09-25T02:35:24.466Z,0
2017-09-25T02:36:25.083Z,0
2017-09-25T02:37:24.426Z,0
2017-09-25T02:38:24.407Z,0
2017-09-25T02:39:24.390Z,0
2017-09-25T02:40:24.708Z,0
2017-09-25T02:41:24.372Z,0
2017-09-25T02:42:24.997Z,0
2017-09-25T02:43:24.653Z,0
2017-09-25T02:44:23.999Z,0
2017-09-25T02:45:23.985Z,0
2017-09-25T02:46:24.308Z,0
2017-09-25T02:47:24.277Z,0
2017-09-25T02:48:23.956Z,0
2017-09-25T02:49:24.252Z,0
2017-09-25T02:50:24.570Z,0
2017-09-25T02:51:24.221Z,0
2017-09-25T02:52:24.215Z,0
2017-09-25T02:53:24.519Z,0
2017-09-25T02:54:24.836Z,0
2017-09-25T02:55:24.811Z,0
2017-09-25T02:56:24.163Z,0
2017-09-25T02:57:24.470Z,0
2017-09-25T02:58:24.131Z,0
2017-09-25T02:59:24.424Z,0
2017-09-25T03:00:24.424Z,0
2017-09-25T03:01:24.736Z,0
2017-09-25T03:02:24.400Z,0
2017-09-25T03:03:23.739Z,0
2017-09-25T03:04:23.719Z,0
2017-09-25T03:05:24.397Z,0
2017-09-25T03:06:24.663Z,0
2017-09-25T03:07:24.008Z,0
2017-09-25T03:08:24.302Z,0
2017-09-25T03:09:24.292Z,0
2017-09-25T03:10:24.298Z,0
2017-09-25T03:11:24.589Z,0
2017-09-25T03:12:23.607Z,0
2017-09-25T03:13:23.923Z,0
2017-09-25T03:14:24.238Z,0
2017-09-25T03:15:23.897Z,0
2017-09-25T03:16:23.872Z,0
2017-09-25T03:17:24.184Z,0
2017-09-25T03:18:24.192Z,0
2017-09-25T03:19:23.839Z,0
2017-09-25T03:20:24.466Z,0
2017-09-25T03:21:23.809Z,0
2017-09-25T03:22:23.786Z,0
2017-09-25T03:23:23.461Z,0
2017-09-25T03:24:23.120Z,0
2017-09-25T03:25:23.421Z,0
2017-09-25T03:26:24.076Z,0
2017-09-25T03:27:24.051Z,0
2017-09-25T03:28:23.704Z,0
2017-09-25T03:29:24.023Z,0
2017-09-25T03:30:24.007Z,0
2017-09-25T03:31:23.986Z,0
2017-09-25T03:32:23.328Z,0
2017-09-25T03:33:23.638Z,0
2017-09-25T03:34:23.640Z,0
2017-09-25T03:35:23.933Z,0
2017-09-25T03:36:23.925Z,0
2017-09-25T03:37:23.597Z,0
2017-09-25T03:38:23.585Z,0
2017-09-25T03:39:23.559Z,0
2017-09-25T03:40:23.549Z,0
2017-09-25T03:41:23.854Z,0
2017-09-25T03:42:23.522Z,0
2017-09-25T03:43:23.497Z,0
2017-09-25T03:44:23.170Z,0
2017-09-25T03:45:22.821Z,0
2017-09-25T03:46:23.782Z,0
2017-09-25T03:47:23.454Z,0
2017-09-25T03:48:23.762Z,0
2017-09-25T03:49:23.145Z,0
2017-09-25T03:50:23.723Z,0
2017-09-25T03:51:24.046Z,0
2017-09-25T03:52:23.055Z,0
2017-09-25T03:53:23.365Z,0
2017-09-25T03:54:23.020Z,0
2017-09-25T03:55:23.332Z,0
2017-09-25T03:56:23.328Z,0
2017-09-25T03:57:24.144Z,0
2017-09-25T03:58:23.617Z,0
2017-09-25T03:59:23.291Z,0
2017-09-25T04:00:22.950Z,0
2017-09-25T04:01:23.255Z,0
2017-09-25T04:02:23.236Z,0
2017-09-25T04:03:23.865Z,0
2017-09-25T04:04:23.213Z,0
2017-09-25T04:05:23.519Z,0
2017-09-25T04:06:23.504Z,0
2017-09-25T04:07:23.824Z,0
2017-09-25T04:08:23.469Z,0
2017-09-25T04:09:23.142Z,0
2017-09-25T04:10:23.144Z,0
2017-09-25T04:11:23.115Z,0
2017-09-25T04:12:23.105Z,0
2017-09-25T04:13:22.764Z,0
2017-09-25T04:14:23.089Z,0
2017-09-25T04:15:23.711Z,0
2017-09-25T04:16:22.740Z,0
2017-09-25T04:17:23.029Z,0
2017-09-25T04:18:23.026Z,0
2017-09-25T04:19:23.325Z,0
2017-09-25T04:20:23.309Z,0
2017-09-25T04:21:23.365Z,0
2017-09-25T04:22:22.954Z,0
2017-09-25T04:23:22.318Z,0
2017-09-25T04:24:23.293Z,0
2017-09-25T04:25:22.937Z,0
2017-09-25T04:26:22.609Z,0
2017-09-25T04:27:23.222Z,0
2017-09-25T04:28:22.559Z,0
2017-09-25T04:29:22.872Z,0
2017-09-25T04:30:23.171Z,0
2017-09-25T04:31:23.177Z,0
2017-09-25T04:32:22.508Z,0
2017-09-25T04:33:23.128Z,0
2017-09-25T04:34:23.133Z,0
2017-09-25T04:35:23.107Z,0
2017-09-25T04:36:22.764Z,0
2017-09-25T04:37:23.399Z,0
2017-09-25T04:38:23.385Z,0
2017-09-25T04:39:22.721Z,0
2017-09-25T04:40:23.037Z,0
2017-09-25T04:41:22.702Z,0
2017-09-25T04:42:23.056Z,0
2017-09-25T04:43:22.679Z,0
2017-09-25T04:44:22.342Z,0
2017-09-25T04:45:22.653Z,0
2017-09-25T04:46:22.970Z,0
2017-09-25T04:47:22.952Z,0
2017-09-25T04:48:23.249Z,0
2017-09-25T04:49:22.589Z,0
2017-09-25T04:50:22.309Z,0
2017-09-25T04:51:22.566Z,0
2017-09-25T04:52:22.545Z,0
2017-09-25T04:53:22.859Z,0
2017-09-25T04:54:22.536Z,0
2017-09-25T04:55:22.839Z,0
2017-09-25T04:56:22.180Z,0
2017-09-25T04:57:22.481Z,0
2017-09-25T04:58:22.146Z,0
2017-09-25T04:59:22.780Z,0
2017-09-25T05:00:22.122Z,0
2017-09-25T05:01:22.423Z,0
2017-09-25T05:02:22.414Z,0
2017-09-25T05:03:22.403Z,0
2017-09-25T05:04:22.393Z,0
2017-09-25T05:05:23.031Z,0
2017-09-25T05:06:22.374Z,0
2017-09-25T05:07:22.676Z,0
2017-09-25T05:08:22.340Z,0
2017-09-25T05:09:22.313Z,0
2017-09-25T05:10:22.621Z,0
2017-09-25T05:11:21.650Z,0
2017-09-25T05:12:21.965Z,0
2017-09-25T05:13:22.588Z,0
2017-09-25T05:14:22.261Z,0
2017-09-25T05:15:22.265Z,0
2017-09-25T05:16:22.252Z,0
2017-09-25T05:17:22.557Z,0
2017-09-25T05:18:22.216Z,0
2017-09-25T05:19:22.841Z,0
2017-09-25T05:20:22.537Z,0
2017-09-25T05:21:22.796Z,0
2017-09-25T05:22:22.785Z,0
2017-09-25T05:23:22.136Z,0
2017-09-25T05:24:22.769Z,0
2017-09-25T05:25:22.424Z,0
2017-09-25T05:26:21.768Z,0
2017-09-25T05:27:22.397Z,5
2017-09-25T05:28:22.063Z,5
2017-09-25T05:29:22.369Z,5
2017-09-25T05:30:22.353Z,5
2017-09-25T05:31:22.654Z,5
2017-09-25T05:32:22.008Z,5
2017-09-25T05:33:21.676Z,5
2017-09-25T05:34:21.336Z,5
2017-09-25T05:35:21.643Z,5
2017-09-25T05:36:21.957Z,10
2017-09-25T05:37:21.298Z,10
2017-09-25T05:38:22.259Z,10
2017-09-25T05:39:21.589Z,10
2017-09-25T05:40:22.543Z,10
2017-09-25T05:41:21.560Z,10
2017-09-25T05:42:22.509Z,10
2017-09-25T05:43:22.169Z,10
2017-09-25T05:44:22.490Z,10
2017-09-25T05:45:22.164Z,10
2017-09-25T05:46:21.174Z,15
2017-09-25T05:47:22.121Z,15
2017-09-25T05:48:22.440Z,15
2017-09-25T05:49:22.115Z,15
2017-09-25T05:50:21.761Z,15
2017-09-25T05:51:21.752Z,15
2017-09-25T05:52:22.058Z,15
2017-09-25T05:53:22.049Z,15
2017-09-25T05:54:22.031Z,15
2017-09-25T05:55:22.351Z,20
2017-09-25T05:56:21.686Z,20
2017-09-25T05:57:22.195Z,20
2017-09-25T05:58:21.658Z,20
2017-09-25T05:59:20.997Z,20
2017-09-25T06:00:21.625Z,20
2017-09-25T06:01:21.621Z,20
2017-09-25T06:02:21.600Z,20
2017-09-25T06:03:21.265Z,25
2017-09-25T06:04:20.934Z,25
2017-09-25T06:05:21.556Z,25
2017-09-25T06:06:21.878Z,25
2017-09-25T06:07:21.218Z,25
2017-09-25T06:08:21.204Z,25
2017-09-25T06:09:21.506Z,25
2017-09-25T06:10:22.159Z,30
2017-09-25T06:11:21.811Z,25
2017-09-25T06:12:21.486Z,30
2017-09-25T06:13:21.458Z,30
2017-09-25T06:14:22.088Z,30
2017-09-25T06:15:22.067Z,35
2017-09-25T06:16:21.419Z,30
2017-09-25T06:17:21.413Z,35
2017-09-25T06:18:21.072Z,35
2017-09-25T06:19:21.694Z,40
2017-09-25T06:20:21.357Z,40
2017-09-25T06:21:21.354Z,40
2017-09-25T06:22:21.021Z,45
2017-09-25T06:23:21.321Z,45
2017-09-25T06:24:21.644Z,45
2017-09-25T06:25:20.974Z,40
2017-09-25T06:26:21.282Z,40
2017-09-25T06:27:21.591Z,50
2017-09-25T06:28:21.917Z,45
2017-09-25T06:29:21.578Z,50
2017-09-25T06:30:20.908Z,50
2017-09-25T06:31:21.546Z,50
2017-09-25T06:32:21.528Z,50
2017-09-25T06:33:21.197Z,45
2017-09-25T06:34:21.182Z,50
2017-09-25T06:35:21.501Z,50
2017-09-25T06:36:21.522Z,50
2017-09-25T06:37:21.777Z,50
2017-09-25T06:38:21.126Z,45
2017-09-25T06:39:21.438Z,45
2017-09-25T06:40:21.745Z,40
2017-09-25T06:41:21.725Z,40
2017-09-25T06:42:21.714Z,45
2017-09-25T06:43:20.741Z,40
2017-09-25T06:44:21.368Z,45
2017-09-25T06:45:21.365Z,50
2017-09-25T06:46:21.354Z,55
2017-09-25T06:47:21.040Z,50
2017-09-25T06:48:21.654Z,55
2017-09-25T06:49:21.310Z,60
2017-09-25T06:50:21.301Z,60
2017-09-25T06:51:20.962Z,60
2017-09-25T06:52:20.624Z,60
2017-09-25T06:53:20.930Z,60
2017-09-25T06:54:20.601Z,65
2017-09-25T06:55:21.239Z,75
2017-09-25T06:56:21.542Z,85
2017-09-25T06:57:21.205Z,90
2017-09-25T06:58:21.188Z,110
2017-09-25T06:59:21.185Z,95
2017-09-25T07:00:21.164Z,105
2017-09-25T07:01:20.836Z,100
2017-09-25T07:02:20.501Z,90
2017-09-25T07:03:21.457Z,95
2017-09-25T07:04:21.123Z,85
2017-09-25T07:05:20.780Z,85
2017-09-25T07:06:20.776Z,95
2017-09-25T07:07:21.397Z,100
2017-09-25T07:08:20.424Z,105
2017-09-25T07:09:20.089Z,90
2017-09-25T07:10:20.413Z,90
2017-09-25T07:11:21.356Z,85
2017-09-25T07:12:20.370Z,75
2017-09-25T07:13:21.007Z,80
2017-09-25T07:14:20.987Z,90
2017-09-25T07:15:20.660Z,95
2017-09-25T07:16:20.665Z,100
2017-09-25T07:17:20.681Z,100
2017-09-25T07:18:20.953Z,95
2017-09-25T07:19:20.929Z,100
2017-09-25T07:20:20.598Z,100
2017-09-25T07:21:21.009Z,100
2017-09-25T07:22:20.575Z,80
2017-09-25T07:23:20.254Z,70
2017-09-25T07:24:20.227Z,65
2017-09-25T07:25:20.863Z,70
2017-09-25T07:26:20.851Z,80
2017-09-25T07:27:20.186Z,85
2017-09-25T07:28:20.856Z,100
2017-09-25T07:29:20.800Z,100
2017-09-25T07:30:20.791Z,95
2017-09-25T07:31:20.136Z,100
2017-09-25T07:32:19.804Z,110
2017-09-25T07:33:20.792Z,115
2017-09-25T07:34:20.110Z,115
2017-09-25T07:35:20.094Z,110
2017-09-25T07:36:20.722Z,110
2017-09-25T07:37:20.378Z,110
2017-09-25T07:38:20.695Z,110
2017-09-25T07:39:20.700Z,115
2017-09-25T07:40:20.672Z,115
2017-09-25T07:41:20.661Z,130
2017-09-25T07:42:20.650Z,120
2017-09-25T07:43:19.991Z,110
2017-09-25T07:44:20.622Z,110
2017-09-25T07:45:20.936Z,130
2017-09-25T07:46:20.924Z,180
2017-09-25T07:47:19.950Z,155
2017-09-25T07:48:19.935Z,110
2017-09-25T07:49:20.239Z,120
2017-09-25T07:50:20.241Z,130
2017-09-25T07:51:20.537Z,135
2017-09-25T07:52:19.920Z,140
2017-09-25T07:53:20.517Z,115
2017-09-25T07:54:20.193Z,120
2017-09-25T07:55:19.849Z,115
2017-09-25T07:56:20.799Z,145
2017-09-25T07:57:20.352Z,155
2017-09-25T07:58:19.815Z,120
2017-09-25T07:59:20.119Z,115
2017-09-25T08:00:20.111Z,120
2017-09-25T08:01:20.106Z,130
2017-09-25T08:02:20.445Z,130
2017-09-25T08:03:20.406Z,125
2017-09-25T08:04:19.748Z,145
2017-09-25T08:05:20.054Z,150
2017-09-25T08:06:20.045Z,130
2017-09-25T08:07:20.358Z,145
2017-09-25T08:08:20.337Z,160
2017-09-25T08:09:20.029Z,165
2017-09-25T08:10:20.318Z,140
2017-09-25T08:11:19.991Z,145
2017-09-25T08:12:20.292Z,155
2017-09-25T08:13:20.277Z,165
2017-09-25T08:14:20.034Z,170
2017-09-25T08:15:19.617Z,170
2017-09-25T08:16:20.249Z,175
2017-09-25T08:17:19.923Z,180
2017-09-25T08:18:20.221Z,180
2017-09-25T08:19:20.213Z,175
2017-09-25T08:20:20.203Z,175
2017-09-25T08:21:20.196Z,180
2017-09-25T08:22:20.508Z,190
2017-09-25T08:23:19.865Z,200
2017-09-25T08:24:19.844Z,205
2017-09-25T08:25:19.846Z,210
2017-09-25T08:26:19.825Z,200
2017-09-25T08:27:20.146Z,185
2017-09-25T08:28:20.131Z,195
2017-09-25T08:29:20.164Z,200
2017-09-25T08:30:19.771Z,200
2017-09-25T08:31:19.772Z,205
2017-09-25T08:32:20.407Z,225
2017-09-25T08:33:20.073Z,240
2017-09-25T08:34:20.074Z,240
2017-09-25T08:35:19.406Z,240
2017-09-25T08:36:19.396Z,240
2017-09-25T08:37:20.352Z,235
2017-09-25T08:38:20.006Z,210
2017-09-25T08:39:19.680Z,235
2017-09-25T08:40:20.314Z,230
2017-09-25T08:41:19.977Z,225
2017-09-25T08:42:20.294Z,220
2017-09-25T08:43:19.675Z,210
2017-09-25T08:44:19.638Z,200
2017-09-25T08:45:20.259Z,225
2017-09-25T08:46:20.252Z,215
2017-09-25T08:47:18.954Z,215
2017-09-25T08:48:19.911Z,270
2017-09-25T08:49:19.576Z,270
2017-09-25T08:50:19.566Z,220
2017-09-25T08:51:19.555Z,215
2017-09-25T08:52:19.874Z,225
2017-09-25T08:53:19.551Z,235
2017-09-25T08:54:20.222Z,235
2017-09-25T08:55:19.846Z,240
2017-09-25T08:56:19.507Z,240
2017-09-25T08:57:19.824Z,240
2017-09-25T08:58:19.487Z,245
2017-09-25T08:59:19.176Z,250
2017-09-25T09:00:20.112Z,250
2017-09-25T09:01:19.461Z,225
2017-09-25T09:02:19.448Z,205
2017-09-25T09:03:19.440Z,170
2017-09-25T09:04:19.779Z,165
2017-09-25T09:05:19.744Z,145
2017-09-25T09:06:19.414Z,140
2017-09-25T09:07:19.401Z,140
2017-09-25T09:08:19.392Z,145
2017-09-25T09:09:20.047Z,145
2017-09-25T09:10:19.691Z,150
2017-09-25T09:11:19.371Z,150
2017-09-25T09:12:19.368Z,160
2017-09-25T09:13:19.988Z,165
2017-09-25T09:14:19.332Z,155
2017-09-25T09:15:19.652Z,150
2017-09-25T09:16:19.682Z,150
2017-09-25T09:17:19.302Z,140
2017-09-25T09:18:19.629Z,150
2017-09-25T09:19:19.608Z,150
2017-09-25T09:20:19.602Z,150
2017-09-25T09:21:19.270Z,145
2017-09-25T09:22:19.263Z,145
2017-09-25T09:23:19.582Z,150
2017-09-25T09:24:19.880Z,160
2017-09-25T09:25:19.548Z,155
2017-09-25T09:26:19.217Z,175
2017-09-25T09:27:19.856Z,190
2017-09-25T09:28:19.522Z,175
2017-09-25T09:29:19.204Z,165
2017-09-25T09:30:18.864Z,170
2017-09-25T09:31:19.169Z,175
2017-09-25T09:32:19.484Z,190
2017-09-25T09:33:19.473Z,185
2017-09-25T09:34:19.461Z,185
2017-09-25T09:35:19.449Z,205
2017-09-25T09:36:19.760Z,215
2017-09-25T09:37:19.427Z,230
2017-09-25T09:38:19.421Z,275
2017-09-25T09:39:18.446Z,240
2017-09-25T09:40:19.077Z,230
2017-09-25T09:41:19.383Z,225
2017-09-25T09:42:19.392Z,240
2017-09-25T09:43:19.375Z,235
2017-09-25T09:44:19.359Z,240
2017-09-25T09:45:19.349Z,240
2017-09-25T09:46:19.340Z,215
2017-09-25T09:47:19.016Z,205
2017-09-25T09:48:18.991Z,235
2017-09-25T09:49:19.315Z,255
2017-09-25T09:50:18.996Z,275
2017-09-25T09:51:18.977Z,275
2017-09-25T09:52:19.292Z,285
2017-09-25T09:53:19.270Z,290
2017-09-25T09:54:19.268Z,295
2017-09-25T09:55:18.608Z,295
2017-09-25T09:56:19.559Z,280
2017-09-25T09:57:19.657Z,295
2017-09-25T09:58:18.583Z,305
2017-09-25T09:59:18.907Z,320
2017-09-25T10:00:19.206Z,270
2017-09-25T10:01:19.533Z,260
2017-09-25T10:02:18.554Z,235
2017-09-25T10:03:18.868Z,230
2017-09-25T10:04:19.172Z,210
2017-09-25T10:05:19.168Z,205
2017-09-25T10:06:18.517Z,195
2017-09-25T10:07:18.509Z,195
2017-09-25T10:08:18.171Z,220
2017-09-25T10:09:18.815Z,235
2017-09-25T10:10:18.469Z,210
2017-09-25T10:11:18.786Z,200
2017-09-25T10:12:19.105Z,215
2017-09-25T10:13:19.423Z,225
2017-09-25T10:14:19.412Z,215
2017-09-25T10:15:19.080Z,215
2017-09-25T10:16:18.424Z,215
2017-09-25T10:17:18.738Z,220
2017-09-25T10:18:18.727Z,225
2017-09-25T10:19:19.040Z,240
2017-09-25T10:20:19.351Z,245
2017-09-25T10:21:19.350Z,265
2017-09-25T10:22:18.696Z,325
2017-09-25T10:23:19.331Z,285
2017-09-25T10:24:18.672Z,275
2017-09-25T10:25:18.981Z,305
2017-09-25T10:26:18.663Z,260
2017-09-25T10:27:18.974Z,260
2017-09-25T10:28:18.634Z,250
2017-09-25T10:29:18.634Z,220
2017-09-25T10:30:18.973Z,230
2017-09-25T10:31:17.976Z,225
2017-09-25T10:32:18.925Z,220
2017-09-25T10:33:18.938Z,210
2017-09-25T10:34:18.290Z,210
2017-09-25T10:35:19.225Z,230
2017-09-25T10:36:18.896Z,285
2017-09-25T10:37:18.885Z,345
2017-09-25T10:38:18.555Z,415
2017-09-25T10:39:18.863Z,435
2017-09-25T10:40:18.591Z,440
2017-09-25T10:41:18.858Z,380
2017-09-25T10:42:19.175Z,380
2017-09-25T10:43:18.192Z,370
2017-09-25T10:44:18.501Z,360
2017-09-25T10:45:18.873Z,355
2017-09-25T10:46:18.486Z,355
2017-09-25T10:47:18.475Z,315
2017-09-25T10:48:18.798Z,330
2017-09-25T10:49:18.466Z,315
2017-09-25T10:50:18.788Z,355
2017-09-25T10:51:18.130Z,320
2017-09-25T10:52:18.765Z,290
2017-09-25T10:53:18.439Z,325
2017-09-25T10:54:18.761Z,325
2017-09-25T10:55:18.439Z,305
2017-09-25T10:56:18.737Z,250
2017-09-25T10:57:18.402Z,250
2017-09-25T10:58:18.718Z,290
2017-09-25T10:59:18.723Z,405
2017-09-25T11:00:18.706Z,475
2017-09-25T11:01:18.055Z,380
2017-09-25T11:02:18.717Z,395
2017-09-25T11:03:18.684Z,445
2017-09-25T11:04:18.361Z,345
2017-09-25T11:05:18.983Z,330
2017-09-25T11:06:18.024Z,320
2017-09-25T11:07:18.348Z,325
2017-09-25T11:08:18.661Z,355
2017-09-25T11:09:18.640Z,360
2017-09-25T11:10:18.653Z,350
2017-09-25T11:11:17.673Z,350
2017-09-25T11:12:18.615Z,425
2017-09-25T11:13:17.973Z,390
2017-09-25T11:14:18.006Z,340
2017-09-25T11:15:18.610Z,390
2017-09-25T11:16:18.282Z,425
2017-09-25T11:17:18.270Z,510
2017-09-25T11:18:18.586Z,570
2017-09-25T11:19:17.933Z,705
2017-09-25T11:20:17.928Z,830
2017-09-25T11:21:18.570Z,785
2017-09-25T11:22:18.555Z,500
2017-09-25T11:23:18.233Z,425
2017-09-25T11:24:18.247Z,425
2017-09-25T11:25:18.915Z,455
2017-09-25T11:26:18.557Z,405
2017-09-25T11:27:18.855Z,380
2017-09-25T11:28:18.210Z,365
2017-09-25T11:29:18.553Z,375
2017-09-25T11:30:18.191Z,395
2017-09-25T11:31:18.504Z,420
2017-09-25T11:32:18.494Z,405
2017-09-25T11:33:18.487Z,380
2017-09-25T11:34:18.741Z,350
2017-09-25T11:35:18.482Z,325
2017-09-25T11:36:18.159Z,320
2017-09-25T11:37:18.155Z,325
2017-09-25T11:38:18.144Z,320
2017-09-25T11:39:18.475Z,325
2017-09-25T11:40:18.449Z,330
2017-09-25T11:41:18.450Z,330
2017-09-25T11:42:18.764Z,345
2017-09-25T11:43:18.436Z,345
2017-09-25T11:44:18.432Z,340
2017-09-25T11:45:18.097Z,335
2017-09-25T11:46:17.772Z,345
2017-09-25T11:47:17.762Z,370
2017-09-25T11:48:18.082Z,360
2017-09-25T11:49:18.752Z,365
2017-09-25T11:50:18.392Z,375
2017-09-25T11:51:17.740Z,380
2017-09-25T11:52:18.063Z,380
2017-09-25T11:53:17.732Z,375
2017-09-25T11:54:18.046Z,375
2017-09-25T11:55:18.364Z,370
2017-09-25T11:56:18.682Z,370
2017-09-25T11:57:18.064Z,375
2017-09-25T11:58:18.357Z,370
2017-09-25T11:59:18.012Z,365
2017-09-25T12:00:18.660Z,380
2017-09-25T12:01:18.334Z,380
2017-09-25T12:02:18.000Z,370
2017-09-25T12:03:17.682Z,365
2017-09-25T12:04:18.629Z,370
2017-09-25T12:05:17.666Z,365
2017-09-25T12:06:17.981Z,365
2017-09-25T12:07:17.969Z,365
2017-09-25T12:08:17.975Z,360
2017-09-25T12:09:17.962Z,355
2017-09-25T12:10:18.281Z,355
2017-09-25T12:11:17.952Z,360
2017-09-25T12:12:18.267Z,375
2017-09-25T12:13:18.259Z,380
2017-09-25T12:14:18.568Z,380
2017-09-25T12:15:17.929Z,385
2017-09-25T12:16:18.560Z,385
2017-09-25T12:17:17.597Z,385
2017-09-25T12:18:17.911Z,390
2017-09-25T12:19:17.263Z,395
2017-09-25T12:20:17.901Z,400
2017-09-25T12:21:17.891Z,410
2017-09-25T12:22:18.522Z,415
2017-09-25T12:23:17.882Z,385
2017-09-25T12:24:17.878Z,390
2017-09-25T12:25:18.180Z,385
2017-09-25T12:26:17.546Z,390
2017-09-25T12:27:18.181Z,400
2017-09-25T12:28:17.517Z,375
2017-09-25T12:29:17.838Z,375
2017-09-25T12:30:17.846Z,380
2017-09-25T12:31:18.167Z,360
2017-09-25T12:32:17.843Z,355
2017-09-25T12:33:18.148Z,350
2017-09-25T12:34:18.139Z,355
2017-09-25T12:35:17.841Z,340
2017-09-25T12:36:17.803Z,335
2017-09-25T12:37:17.806Z,320
2017-09-25T12:38:18.117Z,325
2017-09-25T12:39:18.106Z,325
2017-09-25T12:40:17.134Z,330
2017-09-25T12:41:17.446Z,325
2017-09-25T12:42:18.167Z,320
2017-09-25T12:43:18.078Z,310
2017-09-25T12:44:17.760Z,300
2017-09-25T12:45:17.745Z,300
2017-09-25T12:46:18.079Z,320
2017-09-25T12:47:17.744Z,360
2017-09-25T12:48:17.411Z,465
2017-09-25T12:49:17.725Z,470
2017-09-25T12:50:17.719Z,535
2017-09-25T12:51:18.354Z,545
2017-09-25T12:52:18.082Z,530
2017-09-25T12:53:17.070Z,480
2017-09-25T12:54:17.375Z,490
2017-09-25T12:55:18.014Z,480
2017-09-25T12:56:17.723Z,515
2017-09-25T12:57:18.000Z,510
2017-09-25T12:58:17.665Z,465
2017-09-25T12:59:17.985Z,425
2017-09-25T13:00:17.654Z,410
2017-09-25T13:01:18.029Z,400
2017-09-25T13:02:17.327Z,365
2017-09-25T13:03:17.979Z,335
2017-09-25T13:04:17.633Z,325
2017-09-25T13:05:17.654Z,325
2017-09-25T13:06:17.634Z,335
2017-09-25T13:07:18.268Z,400
2017-09-25T13:08:17.619Z,350
2017-09-25T13:09:17.615Z,355
2017-09-25T13:10:18.289Z,355
2017-09-25T13:11:17.599Z,345
2017-09-25T13:12:17.600Z,350
2017-09-25T13:13:17.600Z,365
2017-09-25T13:14:17.590Z,385
2017-09-25T13:15:17.258Z,390
2017-09-25T13:16:16.922Z,450
2017-09-25T13:17:17.886Z,390
2017-09-25T13:18:17.567Z,380
2017-09-25T13:19:17.883Z,390
2017-09-25T13:20:17.872Z,375
2017-09-25T13:21:17.217Z,375
2017-09-25T13:22:18.193Z,365
2017-09-25T13:23:17.527Z,375
2017-09-25T13:24:17.208Z,395
2017-09-25T13:25:17.839Z,365
2017-09-25T13:26:17.516Z,355
2017-09-25T13:27:18.155Z,365
2017-09-25T13:28:18.145Z,390
2017-09-25T13:29:17.501Z,445
2017-09-25T13:30:17.160Z,435
2017-09-25T13:31:17.798Z,435
2017-09-25T13:32:17.798Z,845
2017-09-25T13:33:17.172Z,725
2017-09-25T13:34:18.109Z,1070
2017-09-25T13:35:18.106Z,1120
2017-09-25T13:36:17.774Z,1135
2017-09-25T13:37:17.130Z,1075
2017-09-25T13:38:18.081Z,770
2017-09-25T13:39:17.764Z,515
2017-09-25T13:40:17.431Z,440
2017-09-25T13:41:17.110Z,420
2017-09-25T13:42:17.786Z,425
2017-09-25T13:43:17.425Z,440
2017-09-25T13:44:17.422Z,435
2017-09-25T13:45:17.730Z,410
2017-09-25T13:46:17.084Z,460
2017-09-25T13:47:17.091Z,615
2017-09-25T13:48:17.087Z,535
2017-09-25T13:49:17.393Z,575
2017-09-25T13:50:17.392Z,525
2017-09-25T13:51:17.706Z,515
2017-09-25T13:52:18.023Z,440
2017-09-25T13:53:17.741Z,440
2017-09-25T13:54:17.072Z,520
2017-09-25T13:55:17.739Z,445
2017-09-25T13:56:17.708Z,415
2017-09-25T13:57:16.720Z,405
2017-09-25T13:58:17.900Z,410
2017-09-25T14:02:35.025Z,930
2017-09-25T14:03:32.644Z,930
2017-09-25T14:04:33.274Z,975
2017-09-25T14:05:32.634Z,880
2017-09-25T14:06:33.582Z,885
2017-09-25T14:07:33.598Z,895
2017-09-25T14:08:33.264Z,835
2017-09-25T14:09:33.575Z,850
2017-09-25T14:10:32.933Z,860
2017-09-25T14:11:33.898Z,865
2017-09-25T14:12:33.573Z,875
2017-09-25T14:13:32.922Z,865
2017-09-25T14:14:33.896Z,815
2017-09-25T14:15:33.894Z,415